createdAt,value
2018-03-28T00:02:20.635Z,106.87
2018-03-28T00:04:49.564Z,102.80
2018-03-28T00:07:18.529Z,101.53
2018-03-28T00:09:47.447Z,100.00
2018-03-28T00:12:16.379Z,101.77
2018-03-28T00:14:45.353Z,115.00
2018-03-28T00:17:14.264Z,105.23
2018-03-28T00:19:43.213Z,107.37
2018-03-28T00:22:12.131Z,104.50
2018-03-28T00:24:41.070Z,102.77
2018-03-28T00:27:10.048Z,95.43
2018-03-28T00:29:38.966Z,85.60
2018-03-28T00:32:08.922Z,76.03
2018-03-28T00:34:37.828Z,73.47
2018-03-28T00:37:06.775Z,82.17
2018-03-28T00:39:35.769Z,74.30
2018-03-28T00:42:04.692Z,78.10
2018-03-28T00:44:33.641Z,68.70
2018-03-28T00:47:02.607Z,72.57
2018-03-28T00:49:31.527Z,69.57
2018-03-28T00:52:00.508Z,73.37
2018-03-28T00:54:29.423Z,74.87
2018-03-28T00:56:58.345Z,76.70
2018-03-28T00:59:27.314Z,73.57
2018-03-28T01:01:56.430Z,75.00
2018-03-28T01:04:25.412Z,68.83
2018-03-28T01:06:54.372Z,67.93
2018-03-28T01:09:23.288Z,65.13
2018-03-28T01:11:52.710Z,64.00
2018-03-28T01:14:21.632Z,68.63
2018-03-28T01:16:50.562Z,58.03
2018-03-28T01:19:19.637Z,56.27
2018-03-28T01:21:48.560Z,57.13
2018-03-28T01:24:17.530Z,55.57
2018-03-28T01:26:46.453Z,63.10
2018-03-28T01:29:16.641Z,53.20
2018-03-28T01:31:45.588Z,65.07
2018-03-28T01:34:14.528Z,58.87
2018-03-28T01:36:43.450Z,64.03
2018-03-28T01:39:12.747Z,60.27
2018-03-28T01:41:41.758Z,60.20
2018-03-28T01:44:10.674Z,65.70
2018-03-28T01:46:39.630Z,61.37
2018-03-28T01:49:08.588Z,62.13
2018-03-28T01:51:37.518Z,61.57
2018-03-28T01:54:06.477Z,65.20
2018-03-28T01:56:35.394Z,66.57
2018-03-28T01:59:04.695Z,67.57
2018-03-28T02:01:33.631Z,78.97
2018-03-28T02:04:02.581Z,70.70
2018-03-28T02:06:31.497Z,85.93
2018-03-28T02:09:00.476Z,87.27
2018-03-28T02:11:29.396Z,92.77
2018-03-28T02:13:58.397Z,96.87
2018-03-28T02:16:27.361Z,97.97
2018-03-28T02:18:56.273Z,88.60
2018-03-28T02:21:25.213Z,87.27
2018-03-28T02:23:54.182Z,94.37
2018-03-28T02:26:23.108Z,85.63
2018-03-28T02:28:52.073Z,91.10
2018-03-28T02:31:20.990Z,96.60
2018-03-28T02:33:50.088Z,96.00
2018-03-28T02:36:19.030Z,87.90
2018-03-28T02:38:48.611Z,96.00
2018-03-28T02:41:17.536Z,101.90
2018-03-28T02:43:46.523Z,101.83
2018-03-28T02:46:15.423Z,97.63
2018-03-28T02:48:44.537Z,92.70
2018-03-28T02:51:13.463Z,104.13
2018-03-28T02:53:42.420Z,106.80
2018-03-28T02:56:11.503Z,103.27
2018-03-28T02:58:40.453Z,97.93
2018-03-28T03:01:10.188Z,98.90
2018-03-28T03:03:39.107Z,98.13
2018-03-28T03:06:08.116Z,98.57
2018-03-28T03:08:37.081Z,94.80
2018-03-28T03:11:06.051Z,86.30
2018-03-28T03:13:34.976Z,88.53
2018-03-28T03:16:03.986Z,92.37
2018-03-28T03:18:32.898Z,86.93
2018-03-28T03:21:01.807Z,88.30
2018-03-28T03:23:30.947Z,89.03
2018-03-28T03:25:59.909Z,85.50
2018-03-28T03:28:28.910Z,83.53
2018-03-28T03:30:57.920Z,89.20
2018-03-28T03:33:26.842Z,93.53
2018-03-28T03:35:55.817Z,88.80
2018-03-28T03:38:24.749Z,94.77
2018-03-28T03:40:53.710Z,104.30
2018-03-28T03:43:22.842Z,102.87
2018-03-28T03:45:51.797Z,90.73
2018-03-28T03:48:20.768Z,99.70
2018-03-28T03:50:49.773Z,106.07
2018-03-28T03:53:18.766Z,106.23
2018-03-28T03:55:47.691Z,113.63
2018-03-28T03:58:16.614Z,117.83
2018-03-28T04:00:45.581Z,132.37
2018-03-28T04:03:14.498Z,113.37
2018-03-28T04:05:43.450Z,113.50
2018-03-28T04:08:12.440Z,105.97
2018-03-28T04:10:41.607Z,104.27
2018-03-28T04:13:10.615Z,105.97
2018-03-28T04:15:39.574Z,103.03
2018-03-28T04:18:08.496Z,108.60
2018-03-28T04:20:37.465Z,124.63
2018-03-28T04:23:06.402Z,109.90
2018-03-28T04:25:35.347Z,105.07
2018-03-28T04:28:04.309Z,105.17
2018-03-28T04:30:33.224Z,111.63
2018-03-28T04:33:02.156Z,101.38
2018-03-28T04:35:31.107Z,101.43
2018-03-28T04:38:00.070Z,104.87
2018-03-28T04:40:29.091Z,112.17
2018-03-28T04:42:58.029Z,108.93
2018-03-28T04:45:27.038Z,124.18
2018-03-28T04:47:56.073Z,127.30
2018-03-28T04:50:25.009Z,119.20
2018-03-28T04:52:54.120Z,129.77
2018-03-28T04:55:23.068Z,130.73
2018-03-28T04:57:52.025Z,129.10
2018-03-28T05:00:20.954Z,138.57
2018-03-28T05:02:50.044Z,129.57
2018-03-28T05:05:19.238Z,121.33
2018-03-28T05:07:48.201Z,122.17
2018-03-28T05:10:17.312Z,136.37
2018-03-28T05:12:46.285Z,120.67
2018-03-28T05:15:15.262Z,111.00
2018-03-28T05:17:44.174Z,113.10
2018-03-28T05:20:13.102Z,116.70
2018-03-28T05:22:42.124Z,116.33
2018-03-28T05:25:11.051Z,111.10
2018-03-28T05:27:40.041Z,119.77
2018-03-28T05:30:08.979Z,111.03
2018-03-28T05:32:37.895Z,111.50
2018-03-28T05:35:06.860Z,110.70
2018-03-28T05:37:35.797Z,102.53
2018-03-28T05:40:04.760Z,100.23
2018-03-28T05:42:33.706Z,99.17
2018-03-28T05:45:02.648Z,111.63
2018-03-28T05:47:31.647Z,107.47
2018-03-28T05:50:00.579Z,104.77
2018-03-28T05:52:29.506Z,93.93
2018-03-28T05:54:58.458Z,90.47
2018-03-28T05:57:27.382Z,85.87
2018-03-28T05:59:56.350Z,79.13
2018-03-28T06:02:25.330Z,83.13
2018-03-28T06:04:54.251Z,72.77
2018-03-28T06:07:23.235Z,67.50
2018-03-28T06:09:52.187Z,70.90
2018-03-28T06:12:21.147Z,70.90
2018-03-28T06:14:50.109Z,68.07
2018-03-28T06:17:19.032Z,71.43
2018-03-28T06:19:47.984Z,70.23
2018-03-28T06:22:16.948Z,69.40
2018-03-28T06:24:45.873Z,68.40
2018-03-28T06:27:14.835Z,69.30
2018-03-28T06:29:43.900Z,70.70
2018-03-28T06:32:12.872Z,73.00
2018-03-28T06:34:41.800Z,65.33
2018-03-28T06:37:10.845Z,67.37
2018-03-28T06:39:39.806Z,69.97
2018-03-28T06:42:08.890Z,69.63
2018-03-28T06:44:38.108Z,73.53
2018-03-28T06:47:07.027Z,73.10
2018-03-28T06:49:35.981Z,66.83
2018-03-28T06:52:04.905Z,71.83
2018-03-28T06:54:34.333Z,75.37
2018-03-28T06:57:03.265Z,79.70
2018-03-28T06:59:32.347Z,73.93
2018-03-28T07:02:01.349Z,85.50
2018-03-28T07:04:30.276Z,87.77
2018-03-28T07:06:59.243Z,88.00
2018-03-28T07:09:28.166Z,71.07
2018-03-28T07:11:57.097Z,70.90
2018-03-28T07:14:26.072Z,70.00
2018-03-28T07:16:55.096Z,71.50
2018-03-28T07:19:24.038Z,74.00
2018-03-28T07:21:53.025Z,73.90
2018-03-28T07:24:21.953Z,75.20
2018-03-28T07:26:50.869Z,78.77
2018-03-28T07:29:19.853Z,90.20
2018-03-28T07:31:48.792Z,89.37
2018-03-28T07:34:17.757Z,96.63
2018-03-28T07:36:46.707Z,100.80
2018-03-28T07:39:15.670Z,92.23
2018-03-28T07:41:44.606Z,79.10
2018-03-28T07:44:13.554Z,82.40
2018-03-28T07:46:42.498Z,80.80
2018-03-28T07:49:11.452Z,74.33
2018-03-28T07:51:40.375Z,82.23
2018-03-28T07:54:09.637Z,82.83
2018-03-28T07:56:38.548Z,82.40
2018-03-28T07:59:07.559Z,85.70
2018-03-28T08:01:36.519Z,86.80
2018-03-28T08:04:05.435Z,84.43
2018-03-28T08:06:34.368Z,75.83
2018-03-28T08:09:03.290Z,86.43
2018-03-28T08:11:32.278Z,86.47
2018-03-28T08:14:01.210Z,70.43
2018-03-28T08:16:30.130Z,71.83
2018-03-28T08:18:59.050Z,79.13
2018-03-28T08:21:27.982Z,62.30
2018-03-28T08:23:56.938Z,56.90
2018-03-28T08:26:25.858Z,63.53
2018-03-28T08:28:54.852Z,61.03
2018-03-28T08:31:23.795Z,57.07
2018-03-28T08:33:52.708Z,50.10
2018-03-28T08:36:21.734Z,41.40
2018-03-28T08:38:50.673Z,49.90
2018-03-28T08:41:19.585Z,57.10
2018-03-28T08:43:48.554Z,55.03
2018-03-28T08:46:17.468Z,42.60
2018-03-28T08:48:46.375Z,55.63
2018-03-28T08:51:15.353Z,63.87
2018-03-28T08:53:44.277Z,65.83
2018-03-28T08:56:13.257Z,62.57
2018-03-28T08:58:42.197Z,66.63
2018-03-28T09:01:11.150Z,62.27
2018-03-28T09:03:40.063Z,61.67
2018-03-28T09:06:09.020Z,71.40
2018-03-28T09:08:38.867Z,70.07
2018-03-28T09:11:07.821Z,71.93
2018-03-28T09:13:36.801Z,70.73
2018-03-28T09:16:05.720Z,73.90
2018-03-28T09:18:34.677Z,72.70
2018-03-28T09:21:03.585Z,68.10
2018-03-28T09:23:32.533Z,72.27
2018-03-28T09:26:01.496Z,63.00
2018-03-28T09:28:30.406Z,69.80
2018-03-28T09:30:59.419Z,76.57
2018-03-28T09:33:28.316Z,73.90
2018-03-28T09:35:57.341Z,68.63
2018-03-28T09:38:26.263Z,65.50
2018-03-28T09:40:55.196Z,59.27
2018-03-28T09:43:24.188Z,64.80
2018-03-28T09:45:53.150Z,61.07
2018-03-28T09:48:22.124Z,59.77
2018-03-28T09:50:51.079Z,54.07
2018-03-28T09:53:20.038Z,43.83
2018-03-28T09:55:49.014Z,51.07
2018-03-28T09:58:17.953Z,49.33
2018-03-28T10:00:46.905Z,45.90
2018-03-28T10:03:16.642Z,47.93
2018-03-28T10:05:45.653Z,43.40
2018-03-28T10:08:14.625Z,54.03
2018-03-28T10:10:43.658Z,51.43
2018-03-28T10:13:12.611Z,51.57
2018-03-28T10:15:41.556Z,46.77
2018-03-28T10:18:10.514Z,50.97
2018-03-28T10:20:39.435Z,48.53
2018-03-28T10:23:08.405Z,50.67
2018-03-28T10:25:37.355Z,52.60
2018-03-28T10:28:06.265Z,49.93
2018-03-28T10:30:35.222Z,61.07
2018-03-28T10:33:04.150Z,51.17
2018-03-28T10:35:33.158Z,50.43
2018-03-28T10:38:02.103Z,49.80
2018-03-28T10:40:31.038Z,52.43
2018-03-28T10:42:59.956Z,48.90
2018-03-28T10:45:28.917Z,45.73
2018-03-28T10:47:57.840Z,46.67
2018-03-28T10:50:26.770Z,46.00
2018-03-28T10:52:55.731Z,51.33
2018-03-28T10:55:24.657Z,51.60
2018-03-28T10:57:53.576Z,47.13
2018-03-28T11:00:22.527Z,50.07
2018-03-28T11:02:51.445Z,46.73
2018-03-28T11:05:20.554Z,48.77
2018-03-28T11:07:49.505Z,48.50
2018-03-28T11:10:18.443Z,48.57
2018-03-28T11:12:48.166Z,47.87
2018-03-28T11:15:17.111Z,49.97
2018-03-28T11:17:46.038Z,52.20
2018-03-28T11:20:14.986Z,52.27
2018-03-28T11:22:43.909Z,53.63
2018-03-28T11:25:12.891Z,57.30
2018-03-28T11:27:41.806Z,51.90
2018-03-28T11:30:10.734Z,58.17
2018-03-28T11:32:39.768Z,50.67
2018-03-28T11:35:08.714Z,59.03
2018-03-28T11:37:37.641Z,58.73
2018-03-28T11:40:06.539Z,54.57
2018-03-28T11:42:35.510Z,57.63
2018-03-28T11:45:04.452Z,57.43
2018-03-28T11:47:33.370Z,57.70
2018-03-28T11:50:02.346Z,59.13
2018-03-28T11:52:31.252Z,59.27
2018-03-28T11:55:00.159Z,57.20
2018-03-28T11:57:29.106Z,90.43
2018-03-28T11:59:58.021Z,53.93
2018-03-28T12:02:27.072Z,58.60
2018-03-28T12:04:55.987Z,55.60
2018-03-28T12:07:24.946Z,56.20
2018-03-28T12:09:53.873Z,56.17
2018-03-28T12:12:22.822Z,53.43
2018-03-28T12:14:52.102Z,49.17
2018-03-28T12:17:21.046Z,52.20
2018-03-28T12:19:50.988Z,52.73
2018-03-28T12:22:20.028Z,53.93
2018-03-28T12:24:49.134Z,52.40
2018-03-28T12:27:18.048Z,51.93
2018-03-28T12:29:46.964Z,68.60
2018-03-28T12:32:15.900Z,49.17
2018-03-28T12:34:44.857Z,49.17
2018-03-28T12:37:13.790Z,51.27
2018-03-28T12:39:42.717Z,50.87
2018-03-28T12:42:11.662Z,53.17
2018-03-28T12:44:40.595Z,49.07
2018-03-28T12:47:09.544Z,49.20
2018-03-28T12:49:38.532Z,48.93
2018-03-28T12:52:07.543Z,47.47
2018-03-28T12:54:36.424Z,75.87
2018-03-28T12:57:05.426Z,46.93
2018-03-28T12:59:34.619Z,48.83
2018-03-28T13:02:03.581Z,50.23
2018-03-28T13:04:32.536Z,50.40
2018-03-28T13:07:01.495Z,46.00
2018-03-28T13:09:30.426Z,45.80
2018-03-28T13:11:59.351Z,49.37
2018-03-28T13:14:28.457Z,51.83
2018-03-28T13:16:57.389Z,44.87
2018-03-28T13:19:26.350Z,49.93
2018-03-28T13:21:55.343Z,45.63
2018-03-28T13:24:24.295Z,48.83
2018-03-28T13:26:53.237Z,51.93
2018-03-28T13:29:22.157Z,47.60
2018-03-28T13:31:51.105Z,48.63
2018-03-28T13:34:20.030Z,44.67
2018-03-28T13:36:48.997Z,56.13
2018-03-28T13:39:18.031Z,49.07
2018-03-28T13:41:46.971Z,47.57
2018-03-28T13:44:16.516Z,42.27
2018-03-28T13:46:45.426Z,46.87
2018-03-28T13:49:14.355Z,46.50
2018-03-28T13:51:43.318Z,48.27
2018-03-28T13:54:12.238Z,54.20
2018-03-28T13:56:41.203Z,47.07
2018-03-28T13:59:10.124Z,44.40
2018-03-28T14:01:39.085Z,53.17
2018-03-28T14:04:08.009Z,49.23
2018-03-28T14:06:36.938Z,48.73
2018-03-28T14:09:05.885Z,46.83
2018-03-28T14:11:34.803Z,45.50
2018-03-28T14:14:03.781Z,46.73
2018-03-28T14:16:32.693Z,55.47
2018-03-28T14:19:01.765Z,47.67
2018-03-28T14:21:30.772Z,45.30
2018-03-28T14:23:59.706Z,43.50
2018-03-28T14:26:28.632Z,47.87
2018-03-28T14:28:57.534Z,47.77
2018-03-28T14:31:26.452Z,53.87
2018-03-28T14:33:55.358Z,44.13
2018-03-28T14:36:24.396Z,47.57
2018-03-28T14:38:53.356Z,48.87
2018-03-28T14:41:22.312Z,47.23
2018-03-28T14:43:51.238Z,43.10
2018-03-28T14:46:20.188Z,46.07
2018-03-28T14:48:49.137Z,47.43
2018-03-28T14:51:18.062Z,47.03
2018-03-28T14:53:47.057Z,48.97
2018-03-28T14:56:15.965Z,43.67
2018-03-28T14:58:44.921Z,45.93
2018-03-28T15:01:13.849Z,48.20
2018-03-28T15:03:42.940Z,43.20
2018-03-28T15:06:11.876Z,45.60
2018-03-28T15:08:40.782Z,47.33
2018-03-28T15:11:09.766Z,45.93
2018-03-28T15:13:38.701Z,46.03
2018-03-28T15:16:07.649Z,42.97
2018-03-28T15:18:36.625Z,47.77
2018-03-28T15:21:05.553Z,50.63
2018-03-28T15:23:34.466Z,54.83
2018-03-28T15:26:03.974Z,49.70
2018-03-28T15:28:32.901Z,42.50
2018-03-28T15:35:23.281Z,45.17
2018-03-28T15:37:52.209Z,44.50
2018-03-28T15:40:21.412Z,49.40
2018-03-28T15:42:50.367Z,50.27
2018-03-28T15:45:20.219Z,47.67
2018-03-28T15:47:49.183Z,45.47
2018-03-28T15:50:18.129Z,46.20
2018-03-28T15:52:47.116Z,51.13
2018-03-28T15:55:16.208Z,50.40
2018-03-28T15:57:45.165Z,51.87
2018-03-28T16:00:14.107Z,52.77
2018-03-28T16:02:43.031Z,56.53
2018-03-28T16:05:12.006Z,57.93
2018-03-28T16:07:40.944Z,49.60
2018-03-28T16:10:09.914Z,52.77
2018-03-28T16:12:38.845Z,53.77
2018-03-28T16:15:07.799Z,52.27
2018-03-28T16:17:36.735Z,56.67
2018-03-28T16:20:05.953Z,55.83
2018-03-28T16:22:34.888Z,60.43
2018-03-28T16:25:03.838Z,59.30
2018-03-28T16:27:32.808Z,61.27
2018-03-28T16:30:01.787Z,61.37
2018-03-28T16:32:30.717Z,60.87
2018-03-28T16:35:00.453Z,57.00
2018-03-28T16:40:03.764Z,65.50
2018-03-28T16:42:32.722Z,72.37
2018-03-28T16:45:01.963Z,68.33
2018-03-28T16:47:31.007Z,60.70
2018-03-28T16:50:00.002Z,64.47
2018-03-28T16:52:28.940Z,62.13
2018-03-28T16:54:57.908Z,62.23
2018-03-28T16:57:26.817Z,61.00
2018-03-28T16:59:55.907Z,64.80
2018-03-28T17:02:24.861Z,68.83
2018-03-28T17:04:53.807Z,61.27
2018-03-28T17:07:22.848Z,67.47
2018-03-28T17:09:51.962Z,63.80
2018-03-28T17:12:20.881Z,65.97
2018-03-28T17:14:49.842Z,60.67
2018-03-28T17:17:18.820Z,66.30
2018-03-28T17:19:47.775Z,70.47
2018-03-28T17:22:16.727Z,74.63
2018-03-28T17:24:45.666Z,71.67
2018-03-28T17:27:15.088Z,74.83
2018-03-28T17:29:44.040Z,71.47
2018-03-28T17:32:13.065Z,72.60
2018-03-28T17:34:42.139Z,83.40
2018-03-28T17:37:11.133Z,115.93
2018-03-28T17:39:40.043Z,86.40
2018-03-28T17:42:09.935Z,160.37
2018-03-28T17:44:38.907Z,94.00
2018-03-28T17:47:07.922Z,83.10
2018-03-28T17:49:36.871Z,81.83
2018-03-28T17:52:05.815Z,109.37
2018-03-28T17:54:34.844Z,102.67
2018-03-28T17:57:03.825Z,174.90
2018-03-28T17:59:32.898Z,90.57
2018-03-28T18:02:01.902Z,131.40
2018-03-28T18:04:30.846Z,132.87
2018-03-28T18:07:00.219Z,84.63
2018-03-28T18:09:29.126Z,94.33
2018-03-28T18:11:58.064Z,67.93
2018-03-28T18:14:27.843Z,70.73
2018-03-28T18:16:56.874Z,70.83
2018-03-28T18:19:25.854Z,84.73
2018-03-28T18:21:54.918Z,73.57
2018-03-28T18:24:24.342Z,77.93
2018-03-28T18:26:53.450Z,66.33
2018-03-28T18:29:22.376Z,68.77
2018-03-28T18:31:51.335Z,71.53
2018-03-28T18:34:20.329Z,71.33
2018-03-28T18:36:49.240Z,67.50
2018-03-28T18:39:18.317Z,59.47
2018-03-28T18:41:47.277Z,67.80
2018-03-28T18:44:16.191Z,66.63
2018-03-28T18:46:45.137Z,68.80
2018-03-28T18:49:14.082Z,66.93
2018-03-28T18:51:43.051Z,70.23
2018-03-28T18:54:11.994Z,64.87
2018-03-28T18:56:41.065Z,64.57
2018-03-28T18:59:10.056Z,68.30
2018-03-28T19:01:38.989Z,72.60
2018-03-28T19:04:08.060Z,65.27
2018-03-28T19:06:37.047Z,66.93
2018-03-28T19:09:06.057Z,70.73
2018-03-28T19:11:35.037Z,70.00
2018-03-28T19:14:04.002Z,66.77
2018-03-28T19:16:32.972Z,65.97
2018-03-28T19:19:01.960Z,70.07
2018-03-28T19:21:30.908Z,69.67
2018-03-28T19:23:59.867Z,69.00
2018-03-28T19:26:28.865Z,65.10
2018-03-28T19:28:57.837Z,65.93
2018-03-28T19:31:26.807Z,63.03
2018-03-28T19:33:55.799Z,61.93
2018-03-28T19:36:24.742Z,58.73
2018-03-28T19:38:54.029Z,61.00
2018-03-28T19:41:23.026Z,60.30
2018-03-28T19:43:52.256Z,55.63
2018-03-28T19:46:21.749Z,56.47
2018-03-28T19:48:50.817Z,57.07
2018-03-28T19:51:19.755Z,55.50
2018-03-28T19:53:48.689Z,58.93
2018-03-28T19:56:17.694Z,57.33
2018-03-28T19:58:46.608Z,55.90
2018-03-28T20:01:15.559Z,56.17
2018-03-28T20:03:44.503Z,61.53
2018-03-28T20:06:14.099Z,57.90
2018-03-28T20:08:43.068Z,59.03
2018-03-28T20:11:12.004Z,58.00
2018-03-28T20:13:40.981Z,62.33
2018-03-28T20:16:09.945Z,63.50
2018-03-28T20:18:38.897Z,62.10
2018-03-28T20:21:07.859Z,67.87
2018-03-28T20:23:36.778Z,61.90
2018-03-28T20:26:05.743Z,64.43
2018-03-28T20:28:34.671Z,61.57
2018-03-28T20:31:03.627Z,59.17
2018-03-28T20:33:32.624Z,60.27
2018-03-28T20:36:01.571Z,61.23
2018-03-28T20:38:30.536Z,59.97
2018-03-28T20:40:59.519Z,64.77
2018-03-28T20:43:29.072Z,61.73
2018-03-28T20:45:58.147Z,64.10
2018-03-28T20:48:27.095Z,70.83
2018-03-28T20:50:56.061Z,67.93
2018-03-28T20:53:25.007Z,74.13
2018-03-28T20:55:53.986Z,73.97
2018-03-28T20:58:22.301Z,66.33
2018-03-28T21:00:49.873Z,70.43
2018-03-28T21:03:18.343Z,66.50
2018-03-28T21:05:45.934Z,72.90
2018-03-28T21:08:13.514Z,67.43
2018-03-28T21:10:42.015Z,68.83
2018-03-28T21:13:09.593Z,73.93
2018-03-28T21:15:37.630Z,71.13
2018-03-28T21:18:05.978Z,75.70
2018-03-28T21:20:33.592Z,75.67
2018-03-28T21:23:01.193Z,66.57
2018-03-28T21:25:28.780Z,70.13
2018-03-28T21:27:57.176Z,77.30
2018-03-28T21:30:25.513Z,75.20
2018-03-28T21:32:53.107Z,64.57
2018-03-28T21:35:21.664Z,66.60
2018-03-28T21:37:49.194Z,75.87
2018-03-28T21:40:16.834Z,70.30
2018-03-28T21:42:44.403Z,73.07
2018-03-28T21:45:11.974Z,72.67
2018-03-28T21:47:39.571Z,68.07
2018-03-28T21:50:07.933Z,73.73
2018-03-28T21:52:35.591Z,73.43
2018-03-28T21:55:03.498Z,77.53
2018-03-28T21:57:31.080Z,75.67
2018-03-28T21:59:58.787Z,78.80
2018-03-28T22:02:27.206Z,75.43
2018-03-28T22:04:54.825Z,72.10
2018-03-28T22:07:23.206Z,74.50
2018-03-28T22:09:50.822Z,74.80
2018-03-28T22:12:18.430Z,77.03
2018-03-28T22:14:46.029Z,82.93
2018-03-28T22:17:13.612Z,79.47
2018-03-28T22:19:41.281Z,86.17
2018-03-28T22:22:08.846Z,81.90
2018-03-28T22:24:36.473Z,87.60
2018-03-28T22:27:05.129Z,89.10
2018-03-28T22:29:34.317Z,83.20
2018-03-28T22:32:02.682Z,83.20
2018-03-28T22:34:30.313Z,77.13
2018-03-28T22:36:57.923Z,80.60
2018-03-28T22:39:26.314Z,80.73
2018-03-28T22:41:53.903Z,83.20
2018-03-28T22:44:21.480Z,87.57
2018-03-28T22:46:49.100Z,88.67
2018-03-28T22:49:16.672Z,82.80
2018-03-28T22:51:44.264Z,83.30
2018-03-28T22:54:11.838Z,80.97
2018-03-28T22:56:41.226Z,86.07
2018-03-28T22:59:08.890Z,86.63
2018-03-28T23:01:36.485Z,84.70
2018-03-28T23:04:05.107Z,83.67
2018-03-28T23:06:32.899Z,75.30
2018-03-28T23:09:00.834Z,81.20
2018-03-28T23:11:28.472Z,80.10
2018-03-28T23:13:56.079Z,83.30
2018-03-28T23:16:23.687Z,86.47
2018-03-28T23:18:51.340Z,88.87
2018-03-28T23:21:19.685Z,85.87
2018-03-28T23:23:47.249Z,83.57
2018-03-28T23:26:14.897Z,79.97
2018-03-28T23:28:42.462Z,82.60
2018-03-28T23:31:10.103Z,80.37
2018-03-28T23:33:37.853Z,85.27
2018-03-28T23:36:05.639Z,82.87
2018-03-28T23:38:33.211Z,81.43
2018-03-28T23:41:01.152Z,81.40
2018-03-28T23:43:28.729Z,79.97
2018-03-28T23:45:56.988Z,85.50
2018-03-28T23:48:24.601Z,85.67
2018-03-28T23:50:52.185Z,76.83
2018-03-28T23:53:19.859Z,81.50
2018-03-28T23:55:47.440Z,82.17
2018-03-28T23:58:15.008Z,78.17
